Flight Track Log - Related Links

Times and Time Zones

All times are in EDT time to prevent confusion due to time zone crossing. See the UAL4663 flight status page for this flight to view local times or setup timezone preferences in your user account.

Time Position Orientation Groundspeed Altitude Reporting Facility
EDT Latitude Longitude Course Direction KTS MPH feet Rate Location/Type
Mon 07:29:30 PM 35.9136 -78.7669 32° Northeast 180 207 1,900  Level Washington Center
Mon 07:30:36 PM 35.9833 -78.7339 21° North 258 297 3,900 2,271 Climbing Washington Center
Mon 07:32:27 PM 36.1139 -78.6903 15° North 273 314 8,600 2,421 Climbing Washington Center
Mon 07:33:27 PM 36.1769 -78.6694 15° North 265 305 10,800 1,650 Climbing Washington Center
Mon 07:34:27 PM 36.2697 -78.6397 14° North 293 337 11,900 1,000 Climbing Washington Center
Mon 07:35:27 PM 36.3539 -78.6119 15° North 333 383 12,800 1,150 Climbing Washington Center
Mon 07:36:27 PM 36.4611 -78.5747 16° North 350 403 14,200 1,350 Climbing Washington Center
Mon 07:37:27 PM 36.5578 -78.5425 15° North 361 415 15,500 1,150 Climbing Washington Center
Mon 07:38:27 PM 36.6611 -78.5075 15° North 366 421 16,500 1,109 Climbing Washington Center
Mon 07:39:26 PM 36.7600 -78.4619 20° North 366 421 17,700 1,000 Climbing Washington Center
Mon 07:40:27 PM 36.8431 -78.3950 33° Northeast 371 427 18,500 900 Climbing Washington Center
Mon 07:41:26 PM 36.9344 -78.3203 33° Northeast 383 441 19,500 958 Climbing Washington Center
Mon 07:42:26 PM 37.0322 -78.2431 32° Northeast 402 463 20,400 893 Climbing Washington Center
Mon 07:43:27 PM 37.1278 -78.1603 35° Northeast 407 468 21,300 942 Climbing Washington Center
Mon 07:44:27 PM 37.2256 -78.0828 32° Northeast 407 468 22,300 1,000 Climbing Washington Center
Mon 07:45:27 PM 37.3231 -77.9997 34° Northeast 412 474 23,300 1,000 Climbing Washington Center
Mon 07:46:27 PM 37.4228 -77.9192 33° Northeast 418 481 24,300 950 Climbing Washington Center
Mon 07:47:27 PM 37.5203 -77.8358 34° Northeast 424 488 25,200 950 Climbing Washington Center
Mon 07:48:27 PM 37.6178 -77.7469 36° Northeast 424 488 26,200 900 Climbing Washington Center
Mon 07:49:27 PM 37.7133 -77.6631 35° Northeast 424 488 27,000 400 Climbing Washington Center
Mon 07:50:27 PM 37.8128 -77.5711 36° Northeast 429 494 27,000  Level Washington Center
Mon 07:51:27 PM 37.9144 -77.4764 36° Northeast 441 507 27,000  Level Washington Center
Mon 07:52:27 PM 38.0181 -77.3814 36° Northeast 446 513 27,000  Level Washington Center
Mon 07:53:27 PM 38.1258 -77.2864 35° Northeast 457 526 27,000  Level Washington Center
Mon 07:54:27 PM 38.2294 -77.1883 37° Northeast 457 526 27,000  Level Washington Center
Mon 07:55:27 PM 38.3347 -77.0925 36° Northeast 463 533 27,000  Level Washington Center
Mon 07:56:27 PM 38.4531 -76.9836 36° Northeast 463 533 27,000  Level Washington Center
Mon 07:57:27 PM 38.5583 -76.8872 36° Northeast 463 533 27,000  Level Washington Center
Mon 07:58:27 PM 38.6614 -76.7881 37° Northeast 458 527 27,000  Level Washington Center
Mon 07:59:27 PM 38.7603 -76.6858 39° Northeast 458 527 27,000  Level Washington Center
Mon 08:00:27 PM 38.8489 -76.5778 44° Northeast 450 518 27,000  Level Washington Center
Mon 08:01:27 PM 38.9497 -76.4672 40° Northeast 448 516 27,000  Level Washington Center
Mon 08:02:27 PM 39.0422 -76.3586 42° Northeast 448 516 27,000  Level Washington Center
Mon 08:03:27 PM 39.1367 -76.2500 42° Northeast 448 516 27,000  Level Washington Center
Mon 08:04:27 PM 39.2331 -76.1383 42° Northeast 453 521 27,000 -500 Level Washington Center
Mon 08:05:27 PM 39.3253 -76.0261 43° Northeast 453 521 26,000 -1,750 Descending Washington Center
Mon 08:06:27 PM 39.4194 -75.9192 41° Northeast 448 516 23,500 -2,450 Descending Washington Center
Mon 08:07:27 PM 39.5133 -75.8067 43° Northeast 448 516 21,100 -1,550 Descending Washington Center
Mon 08:08:27 PM 39.5969 -75.7072 42° Northeast 435 501 20,400 -600 Descending Washington Center
Mon 08:09:27 PM 39.6822 -75.6022 43° Northeast 422 486 19,900 -700 Descending Washington Center
Mon 08:10:27 PM 39.7719 -75.4997 41° Northeast 422 486 19,000 -1,400 Descending Washington Center
Mon 08:11:27 PM 39.8550 -75.3942 44° Northeast 422 486 17,100 -1,600 Descending Washington Center
Mon 08:12:27 PM 39.9278 -75.3075 42° Northeast 411 473 15,800 -1,400 Descending Washington Center
Mon 08:13:27 PM 40.0089 -75.2122 42° Northeast 398 458 14,300 -1,750 Descending Washington Center
Mon 08:14:27 PM 40.0856 -75.1169 44° Northeast 391 450 12,300 -1,850 Descending Washington Center
Mon 08:15:27 PM 40.1558 -75.0297 43° Northeast 372 428 10,600 -1,350 Descending Washington Center
Mon 08:16:27 PM 40.2222 -74.9503 42° Northeast 339 390 9,600 -1,099 Descending Washington Center
Mon 08:17:38 PM 40.2833 -74.8500 51° Northeast 282 325 8,200 -1,099 Descending New TRACON
Mon 08:19:38 PM 40.4000 -74.7000 44° Northeast 282 325 6,100 -733 Descending New TRACON
Mon 08:20:38 PM 40.4667 -74.6500 30° Northeast 278 320 6,000 -50 Descending New TRACON
Mon 08:21:38 PM 40.5333 -74.6333 11° North 246 283 6,000 -50 Level New TRACON
Mon 08:22:38 PM 40.6000 -74.6167 11° North 240 276 5,900 -500 Descending New TRACON
Mon 08:23:38 PM 40.6667 -74.5833 21° North 251 289 5,000 -300 Descending New TRACON
Mon 08:25:38 PM 40.7833 -74.5333 18° North 247 284 5,000  Level New TRACON
Mon 08:26:38 PM 40.8500 -74.4833 30° Northeast 267 307 5,000  Level New TRACON
Mon 08:27:38 PM 40.9167 -74.4333 30° Northeast 269 310 5,000  Level New TRACON
Mon 08:28:38 PM 40.9833 -74.3833 30° Northeast 268 308 5,000  Level New TRACON

Login

Don't have an account? Register now (free) for customized features, flight alerts, and more!